Sprinkle, Texas
Current Conditions -  °F | °C
As of 3:15 AM on Monday 20 Oct 2014 (Local Time) from KEDC Reporting Station
Overcast Overcast  
Wind Chill: 63°   Ceiling: 3100
Heat Index: 63°   Visibility: 10mi
Dew Point: 61°   Wind: 0mph
Humidity: 94%   Direction: NA
Pressure: 30.04"   Gusts: NA
Location:  30.3539°N, 97.659°W
Report Text: KEDC 200815Z AUTO 00000KT 10SM FEW024 OVC031 17/16 A3004 RMK AO2
Loading
Personal Weather Stations






























Interactive Weather Map
Tropical Storm Tracking
New forecast layout! Learn more

10-Day Weather Forecast

Advertisements
Track Severe Weather on mobile